createdAt,value
2023-10-03T00:01:26.494Z,8.10
2023-10-03T00:03:54.765Z,9.90
2023-10-03T00:06:23.176Z,9.80
2023-10-03T00:08:51.749Z,8.70
2023-10-03T00:11:21.052Z,10.50
2023-10-03T00:13:51.542Z,10.50
2023-10-03T00:16:20.016Z,11.50
2023-10-03T00:18:48.452Z,12.20
2023-10-03T00:21:17.698Z,10.30
2023-10-03T00:23:45.746Z,11.50
2023-10-03T00:26:18.931Z,10.00
2023-10-03T00:28:49.504Z,11.00
2023-10-03T00:31:17.853Z,12.00
2023-10-03T00:33:46.073Z,9.00
2023-10-03T00:36:17.455Z,9.70
2023-10-03T00:38:47.095Z,11.00
2023-10-03T00:41:15.195Z,9.90
2023-10-03T00:43:53.697Z,12.70
2023-10-03T00:46:22.698Z,9.70
2023-10-03T00:48:51.404Z,11.00
2023-10-03T00:51:22.431Z,9.20
2023-10-03T00:53:54.596Z,8.40
2023-10-03T00:56:23.892Z,9.90
2023-10-03T00:58:52.999Z,8.80
2023-10-03T01:01:21.316Z,10.00
2023-10-03T01:03:49.567Z,11.00
2023-10-03T01:06:17.808Z,9.40
2023-10-03T01:08:48.862Z,12.30
2023-10-03T01:11:20.358Z,10.60
2023-10-03T01:14:01.432Z,8.10
2023-10-03T01:16:34.954Z,8.90
2023-10-03T01:19:15.586Z,9.70
2023-10-03T01:21:51.563Z,10.80
2023-10-03T01:24:25.730Z,11.80
2023-10-03T01:26:56.353Z,9.80
2023-10-03T01:29:24.767Z,9.90
2023-10-03T01:31:54.020Z,13.50
2023-10-03T01:34:22.510Z,10.90
2023-10-03T01:36:50.594Z,10.50
2023-10-03T01:39:18.867Z,7.90
2023-10-03T01:41:46.993Z,8.90
2023-10-03T01:44:18.231Z,8.80
2023-10-03T01:46:46.796Z,8.50
2023-10-03T01:49:16.070Z,9.80
2023-10-03T01:51:45.018Z,10.70
2023-10-03T01:54:13.841Z,9.10
2023-10-03T01:56:42.142Z,8.70
2023-10-03T01:59:10.753Z,12.80
2023-10-03T02:01:39.434Z,10.50
2023-10-03T02:04:08.122Z,12.10
2023-10-03T02:06:36.611Z,12.10
2023-10-03T02:09:08.048Z,11.10
2023-10-03T02:11:36.894Z,10.50
2023-10-03T02:14:09.173Z,11.80
2023-10-03T02:16:42.643Z,11.10
2023-10-03T02:19:11.519Z,8.50
2023-10-03T02:21:43.413Z,12.60
2023-10-03T02:24:14.512Z,12.50
2023-10-03T02:26:43.863Z,14.40
2023-10-03T02:29:14.514Z,9.90
2023-10-03T02:31:44.639Z,7.70
2023-10-03T02:34:13.174Z,9.40
2023-10-03T02:36:41.259Z,11.50
2023-10-03T02:39:10.402Z,9.20
2023-10-03T02:41:43.286Z,8.20
2023-10-03T02:44:12.501Z,10.30
2023-10-03T02:46:41.322Z,10.30
2023-10-03T02:49:13.249Z,8.80
2023-10-03T02:51:43.187Z,10.20
2023-10-03T02:54:11.708Z,10.40
2023-10-03T02:56:39.887Z,11.00
2023-10-03T02:59:07.979Z,9.40
2023-10-03T03:01:37.236Z,9.80
2023-10-03T03:04:07.347Z,10.50
2023-10-03T03:06:37.049Z,13.20
2023-10-03T03:09:08.560Z,12.80
2023-10-03T03:11:49.165Z,14.30
2023-10-03T03:14:17.676Z,8.50
2023-10-03T03:16:49.043Z,11.20
2023-10-03T03:19:17.522Z,12.60
2023-10-03T03:21:45.944Z,9.50
2023-10-03T03:24:16.736Z,12.10
2023-10-03T03:26:49.122Z,9.60
2023-10-03T03:29:23.741Z,13.30
2023-10-03T03:31:53.048Z,16.30
2023-10-03T03:34:23.264Z,11.80
2023-10-03T03:36:56.964Z,16.70
2023-10-03T03:39:28.841Z,14.00
2023-10-03T03:41:57.822Z,12.20
2023-10-03T03:44:27.079Z,11.10
2023-10-03T03:46:55.513Z,13.60
2023-10-03T03:49:25.633Z,16.20
2023-10-03T03:51:54.855Z,13.60
2023-10-03T03:54:22.918Z,14.10
2023-10-03T03:56:52.004Z,15.40
2023-10-03T03:59:20.261Z,15.60
2023-10-03T04:01:48.562Z,15.70
2023-10-03T04:04:17.538Z,21.40
2023-10-03T04:06:47.050Z,19.30
2023-10-03T04:09:15.929Z,14.80
2023-10-03T04:11:44.804Z,16.60
2023-10-03T04:14:13.075Z,18.40
2023-10-03T04:16:42.616Z,16.50
2023-10-03T04:19:12.189Z,15.60
2023-10-03T04:21:44.057Z,15.40
2023-10-03T04:24:13.609Z,23.20
2023-10-03T04:26:44.339Z,25.00
2023-10-03T04:29:16.234Z,15.60
2023-10-03T04:31:45.847Z,23.70
2023-10-03T04:34:18.194Z,20.80
2023-10-03T04:36:48.913Z,24.80
2023-10-03T04:39:17.640Z,26.10
2023-10-03T04:41:47.132Z,19.50
2023-10-03T04:44:17.697Z,19.60
2023-10-03T04:46:47.619Z,18.00
2023-10-03T04:49:17.414Z,17.40
2023-10-03T04:51:48.808Z,21.60
2023-10-03T04:54:20.295Z,22.40
2023-10-03T04:56:50.182Z,20.70
2023-10-03T04:59:20.861Z,19.90
2023-10-03T05:01:49.345Z,19.10
2023-10-03T05:04:18.155Z,26.10
2023-10-03T05:06:49.123Z,19.70
2023-10-03T05:09:19.562Z,22.50
2023-10-03T05:11:51.987Z,27.40
2023-10-03T05:14:22.258Z,30.40
2023-10-03T05:16:54.194Z,25.30
2023-10-03T05:19:23.580Z,18.90
2023-10-03T05:21:51.863Z,18.20
2023-10-03T05:24:20.479Z,23.10
2023-10-03T05:26:50.240Z,32.10
2023-10-03T05:29:19.341Z,20.70
2023-10-03T05:31:47.719Z,26.50
2023-10-03T05:34:16.879Z,23.40
2023-10-03T05:36:45.870Z,26.00
2023-10-03T05:39:18.850Z,26.10
2023-10-03T05:41:48.837Z,17.40
2023-10-03T05:44:20.017Z,15.50
2023-10-03T05:46:54.452Z,20.70
2023-10-03T05:49:25.837Z,21.80
2023-10-03T05:51:57.177Z,21.50
2023-10-03T05:54:28.695Z,29.90
2023-10-03T05:56:57.288Z,28.00
2023-10-03T05:59:27.971Z,30.40
2023-10-03T06:01:58.982Z,20.90
2023-10-03T06:04:28.377Z,22.10
2023-10-03T06:06:57.318Z,15.70
2023-10-03T06:09:25.641Z,26.80
2023-10-03T06:11:57.447Z,27.20
2023-10-03T06:14:26.531Z,27.90
2023-10-03T06:16:54.925Z,22.10
2023-10-03T06:19:23.337Z,26.90
2023-10-03T06:21:51.679Z,28.20
2023-10-03T06:24:19.952Z,21.20
2023-10-03T06:26:49.034Z,28.40
2023-10-03T06:29:18.291Z,31.40
2023-10-03T06:31:46.390Z,24.00
2023-10-03T06:34:16.711Z,22.80
2023-10-03T06:36:45.217Z,16.80
2023-10-03T06:39:14.030Z,20.00
2023-10-03T06:41:42.461Z,24.60
2023-10-03T06:44:11.086Z,22.20
2023-10-03T06:46:39.826Z,25.30
2023-10-03T06:49:08.414Z,15.20
2023-10-03T06:51:36.971Z,22.20
2023-10-03T06:54:06.009Z,23.60
2023-10-03T06:56:35.608Z,27.00
2023-10-03T06:59:05.629Z,25.20
2023-10-03T07:01:33.993Z,26.90
2023-10-03T07:04:03.437Z,31.30
2023-10-03T07:06:34.466Z,23.40
2023-10-03T07:09:07.441Z,28.10
2023-10-03T07:11:36.080Z,26.30
2023-10-03T07:14:04.873Z,30.20
2023-10-03T07:16:40.428Z,24.00
2023-10-03T07:19:15.524Z,21.70
2023-10-03T07:21:44.341Z,19.90
2023-10-03T07:24:14.314Z,24.60
2023-10-03T07:26:43.856Z,18.30
2023-10-03T07:29:12.324Z,19.80
2023-10-03T07:31:40.657Z,16.80
2023-10-03T07:34:09.004Z,14.80
2023-10-03T07:36:40.390Z,14.30
2023-10-03T07:39:09.583Z,25.80
2023-10-03T07:41:38.536Z,20.40
2023-10-03T07:44:06.816Z,16.30
2023-10-03T07:46:35.008Z,14.00
2023-10-03T07:49:04.555Z,18.10
2023-10-03T07:51:33.789Z,22.30
2023-10-03T07:54:03.134Z,28.00
2023-10-03T07:56:32.599Z,17.30
2023-10-03T07:59:04.844Z,24.00
2023-10-03T08:04:10.467Z,16.80
2023-10-03T08:06:40.723Z,22.90
2023-10-03T08:09:10.755Z,26.90
2023-10-03T08:11:39.573Z,22.40
2023-10-03T08:14:15.141Z,14.30
2023-10-03T08:16:44.530Z,14.30
2023-10-03T08:19:26.835Z,15.90
2023-10-03T08:21:56.886Z,23.30
2023-10-03T08:24:26.879Z,19.40
2023-10-03T08:27:03.319Z,31.40
2023-10-03T08:29:32.103Z,20.10
2023-10-03T08:32:00.852Z,17.80
2023-10-03T08:34:31.150Z,16.20
2023-10-03T08:37:04.266Z,27.00
2023-10-03T08:39:34.263Z,22.80
2023-10-03T08:42:16.731Z,18.30
2023-10-03T08:44:59.892Z,18.20
2023-10-03T08:47:33.468Z,11.90
2023-10-03T08:50:27.707Z,18.50
2023-10-03T08:53:14.321Z,19.00
2023-10-03T08:55:45.026Z,21.20
2023-10-03T08:58:20.217Z,23.90
2023-10-03T09:03:20.118Z,17.50
2023-10-03T09:05:49.262Z,22.00
2023-10-03T09:08:18.794Z,21.00
2023-10-03T09:10:54.699Z,18.60
2023-10-03T09:13:26.057Z,14.70
2023-10-03T09:16:03.747Z,14.90
2023-10-03T09:18:42.121Z,18.10
2023-10-03T09:21:26.472Z,18.20
2023-10-03T09:24:11.103Z,14.60
2023-10-03T09:26:48.508Z,19.90
2023-10-03T09:29:21.301Z,17.90
2023-10-03T09:31:50.957Z,17.30
2023-10-03T09:34:19.547Z,24.60
2023-10-03T09:36:50.123Z,17.30
2023-10-03T09:39:24.198Z,12.00
2023-10-03T09:41:56.452Z,17.40
2023-10-03T09:44:31.659Z,15.70
2023-10-03T09:47:05.617Z,14.70
2023-10-03T09:49:40.571Z,18.10
2023-10-03T09:52:34.394Z,24.40
2023-10-03T09:55:18.657Z,23.40
2023-10-03T09:57:53.468Z,15.50
2023-10-03T10:00:40.801Z,15.50
2023-10-03T10:03:37.250Z,12.80
2023-10-03T10:06:38.933Z,14.60
2023-10-03T10:09:15.521Z,13.00
2023-10-03T10:12:12.093Z,14.80
2023-10-03T10:15:02.711Z,14.10
2023-10-03T10:17:54.114Z,12.30
2023-10-03T10:20:39.926Z,23.50
2023-10-03T10:23:10.816Z,14.40
2023-10-03T10:25:44.382Z,11.00
2023-10-03T10:28:19.160Z,12.00
2023-10-03T10:31:12.881Z,12.90
2023-10-03T10:33:43.579Z,15.00
2023-10-03T10:36:12.464Z,15.10
2023-10-03T10:38:41.268Z,13.20
2023-10-03T10:41:12.907Z,13.20
2023-10-03T10:44:07.416Z,18.10
2023-10-03T10:46:40.424Z,17.20
2023-10-03T10:49:31.980Z,14.20
2023-10-03T10:52:02.569Z,13.10
2023-10-03T10:54:31.318Z,15.90
2023-10-03T10:57:08.368Z,12.90
2023-10-03T10:59:37.156Z,16.90
2023-10-03T11:02:07.752Z,15.80
2023-10-03T11:04:37.394Z,15.60
2023-10-03T11:07:06.525Z,21.30
2023-10-03T11:09:40.728Z,11.50
2023-10-03T11:12:09.126Z,12.70
2023-10-03T11:14:37.472Z,15.90
2023-10-03T11:17:08.555Z,16.20
2023-10-03T11:19:37.117Z,16.50
2023-10-03T11:22:05.623Z,21.60
2023-10-03T11:24:39.545Z,13.80
2023-10-03T11:27:08.062Z,15.70
2023-10-03T11:29:37.648Z,21.90
2023-10-03T11:32:18.456Z,15.00
2023-10-03T11:34:46.834Z,15.70
2023-10-03T11:37:38.144Z,17.90
2023-10-03T11:40:30.156Z,15.80
2023-10-03T11:43:04.524Z,15.00
2023-10-03T11:45:35.117Z,23.50
2023-10-03T11:48:19.545Z,15.20
2023-10-03T11:50:48.213Z,16.30
2023-10-03T11:53:17.363Z,13.20
2023-10-03T11:55:45.863Z,14.90
2023-10-03T11:58:14.297Z,15.80
2023-10-03T12:00:46.337Z,13.90
2023-10-03T12:03:15.720Z,15.10
2023-10-03T12:05:47.371Z,12.40
2023-10-03T12:08:15.826Z,17.60
2023-10-03T12:10:45.088Z,11.00
2023-10-03T12:13:16.878Z,12.10
2023-10-03T12:15:47.666Z,12.30
2023-10-03T12:18:19.973Z,11.30
2023-10-03T12:20:49.253Z,14.00
2023-10-03T12:23:17.987Z,12.30
2023-10-03T12:25:46.618Z,14.70
2023-10-03T12:28:17.712Z,10.40
2023-10-03T12:30:45.823Z,11.20
2023-10-03T12:33:18.004Z,12.70
2023-10-03T12:35:48.381Z,10.90
2023-10-03T12:38:17.537Z,10.40
2023-10-03T12:40:45.834Z,10.60
2023-10-03T12:43:14.101Z,11.70
2023-10-03T12:45:43.146Z,15.20
2023-10-03T12:48:11.577Z,14.00
2023-10-03T12:50:40.850Z,11.80
2023-10-03T12:53:12.483Z,10.70
2023-10-03T12:55:40.878Z,12.70
2023-10-03T12:58:09.037Z,16.80
2023-10-03T13:00:37.968Z,14.90
2023-10-03T13:03:06.716Z,14.30
2023-10-03T13:05:36.629Z,15.40
2023-10-03T13:08:05.488Z,10.60
2023-10-03T13:10:35.886Z,12.40
2023-10-03T13:13:05.669Z,11.50
2023-10-03T13:15:34.841Z,16.40
2023-10-03T13:18:03.510Z,12.20
2023-10-03T13:20:32.030Z,16.20
2023-10-03T13:23:02.565Z,17.40
2023-10-03T13:25:30.951Z,15.10
2023-10-03T13:27:59.852Z,13.20
2023-10-03T13:30:31.309Z,12.20
2023-10-03T13:33:00.207Z,10.50
2023-10-03T13:35:31.925Z,12.90
2023-10-03T13:38:02.004Z,12.40
2023-10-03T13:40:30.769Z,14.60
2023-10-03T13:43:02.341Z,11.00
2023-10-03T13:45:32.133Z,10.20
2023-10-03T13:48:02.174Z,10.40
2023-10-03T13:50:32.272Z,12.60
2023-10-03T13:53:00.801Z,14.60
2023-10-03T13:55:30.848Z,13.10
2023-10-03T13:57:59.584Z,12.90
2023-10-03T14:00:30.067Z,19.10
2023-10-03T14:03:07.247Z,15.50
2023-10-03T14:05:36.703Z,13.40
2023-10-03T14:08:05.744Z,9.80
2023-10-03T14:10:34.580Z,19.30
2023-10-03T14:13:03.094Z,15.30
2023-10-03T14:15:32.381Z,13.60
2023-10-03T14:18:00.862Z,12.10
2023-10-03T14:20:32.601Z,11.70
2023-10-03T14:23:01.539Z,11.00
2023-10-03T14:25:30.391Z,10.30
2023-10-03T14:27:59.219Z,12.00
2023-10-03T14:30:27.579Z,12.30
2023-10-03T14:32:56.627Z,12.10
2023-10-03T14:35:27.374Z,12.20
2023-10-03T14:37:55.537Z,13.70
2023-10-03T14:40:23.825Z,12.10
2023-10-03T14:42:52.067Z,15.90
2023-10-03T14:45:21.224Z,15.40
2023-10-03T14:47:49.587Z,11.00
2023-10-03T14:50:18.975Z,15.40
2023-10-03T14:52:47.232Z,12.50
2023-10-03T14:55:18.062Z,14.50
2023-10-03T14:57:47.083Z,12.30
2023-10-03T15:00:19.209Z,14.20
2023-10-03T15:02:47.854Z,16.10
2023-10-03T15:05:16.314Z,16.30
2023-10-03T15:07:44.760Z,13.20
2023-10-03T15:10:12.998Z,11.10
2023-10-03T15:12:41.214Z,13.50
2023-10-03T15:15:09.915Z,14.70
2023-10-03T15:17:38.702Z,9.30
2023-10-03T15:20:07.823Z,13.00
2023-10-03T15:22:36.126Z,11.20
2023-10-03T15:25:04.832Z,13.00
2023-10-03T15:27:34.876Z,16.20
2023-10-03T15:30:04.041Z,15.10
2023-10-03T15:32:32.210Z,13.00
2023-10-03T15:35:02.004Z,12.40
2023-10-03T15:37:30.496Z,13.90
2023-10-03T15:39:59.167Z,12.30
2023-10-03T15:42:28.520Z,15.60
2023-10-03T15:45:11.911Z,14.10
2023-10-03T15:47:42.368Z,9.90
2023-10-03T15:50:11.952Z,17.00
2023-10-03T15:52:43.788Z,17.30
2023-10-03T15:55:12.368Z,18.20
2023-10-03T15:57:40.590Z,22.40
2023-10-03T16:00:12.488Z,18.70
2023-10-03T16:02:41.070Z,15.80
2023-10-03T16:05:09.860Z,17.10
2023-10-03T16:07:38.130Z,12.80
2023-10-03T16:10:07.428Z,18.90
2023-10-03T16:12:35.888Z,21.40
2023-10-03T16:15:05.043Z,13.30
2023-10-03T16:17:33.223Z,18.40
2023-10-03T16:20:07.377Z,19.60
2023-10-03T16:22:35.805Z,16.90
2023-10-03T16:25:06.926Z,23.60
2023-10-03T16:27:37.088Z,15.70
2023-10-03T16:30:09.037Z,19.00
2023-10-03T16:32:37.606Z,19.60
2023-10-03T16:35:08.945Z,21.60
2023-10-03T16:37:37.367Z,15.10
2023-10-03T16:40:08.096Z,20.90
2023-10-03T16:42:37.730Z,15.10
2023-10-03T16:45:10.969Z,18.80
2023-10-03T16:47:39.915Z,14.70
2023-10-03T16:50:12.002Z,18.50
2023-10-03T16:52:44.563Z,17.50
2023-10-03T16:55:13.620Z,23.50
2023-10-03T16:57:44.634Z,20.80
2023-10-03T17:00:16.908Z,25.80
2023-10-03T17:02:47.035Z,20.00
2023-10-03T17:05:17.162Z,16.60
2023-10-03T17:07:46.525Z,16.70
2023-10-03T17:10:19.627Z,18.90
2023-10-03T17:12:49.537Z,22.70
2023-10-03T17:15:18.344Z,20.40
2023-10-03T17:17:51.719Z,22.40
2023-10-03T17:20:20.129Z,19.70
2023-10-03T17:22:48.531Z,21.20
2023-10-03T17:25:17.351Z,21.30
2023-10-03T17:27:46.249Z,17.60
2023-10-03T17:30:14.688Z,20.50
2023-10-03T17:32:44.750Z,20.10
2023-10-03T17:35:14.483Z,20.30
2023-10-03T17:37:43.708Z,22.90
2023-10-03T17:40:14.659Z,21.70
2023-10-03T17:42:47.016Z,17.90
2023-10-03T17:45:15.363Z,29.50
2023-10-03T17:47:43.837Z,22.40
2023-10-03T17:50:14.947Z,20.00
2023-10-03T17:52:43.953Z,18.40
2023-10-03T17:55:13.114Z,18.10
2023-10-03T17:57:44.641Z,18.30
2023-10-03T18:00:15.312Z,21.80
2023-10-03T18:02:50.019Z,21.90
2023-10-03T18:05:18.833Z,21.60
2023-10-03T18:07:49.124Z,20.10
2023-10-03T18:10:19.780Z,22.10
2023-10-03T18:12:50.024Z,24.70
2023-10-03T18:15:19.778Z,23.30
2023-10-03T18:17:49.923Z,21.70
2023-10-03T18:20:18.905Z,20.20
2023-10-03T18:22:47.452Z,21.30
2023-10-03T18:25:19.831Z,18.20
2023-10-03T18:27:47.901Z,24.00
2023-10-03T18:30:16.756Z,19.00
2023-10-03T18:32:44.818Z,22.30
2023-10-03T18:35:13.678Z,23.90
2023-10-03T18:37:43.336Z,24.60
2023-10-03T18:40:14.849Z,21.10
2023-10-03T18:42:43.323Z,22.60
2023-10-03T18:45:14.965Z,25.70
2023-10-03T18:47:43.456Z,21.50
2023-10-03T18:50:12.632Z,26.30
2023-10-03T18:52:41.076Z,20.30
2023-10-03T18:55:10.653Z,18.90
2023-10-03T18:57:39.911Z,24.70
2023-10-03T19:00:12.939Z,19.50
2023-10-03T19:02:45.199Z,19.80
2023-10-03T19:05:13.660Z,23.20
2023-10-03T19:07:41.724Z,20.30
2023-10-03T19:10:13.176Z,34.70
2023-10-03T19:12:42.764Z,25.10
2023-10-03T19:15:12.532Z,25.50
2023-10-03T19:17:40.646Z,28.50
2023-10-03T19:20:10.688Z,25.80
2023-10-03T19:22:40.050Z,27.20
2023-10-03T19:25:08.979Z,25.80
2023-10-03T19:27:42.113Z,21.30
2023-10-03T19:30:18.232Z,25.40
2023-10-03T19:32:49.374Z,22.90
2023-10-03T19:35:19.289Z,30.80
2023-10-03T19:37:48.720Z,21.20
2023-10-03T19:40:18.208Z,22.70
2023-10-03T19:42:46.583Z,28.50
2023-10-03T19:45:14.778Z,24.10
2023-10-03T19:47:42.890Z,25.30
2023-10-03T19:50:12.402Z,19.00
2023-10-03T19:52:40.553Z,22.20
2023-10-03T19:55:10.739Z,21.30
2023-10-03T19:57:39.831Z,25.90
2023-10-03T20:00:12.837Z,27.60
2023-10-03T20:02:42.591Z,25.50
2023-10-03T20:05:12.455Z,21.50
2023-10-03T20:07:40.861Z,21.20
2023-10-03T20:10:16.483Z,23.60
2023-10-03T20:12:45.801Z,18.50
2023-10-03T20:15:16.957Z,22.50
2023-10-03T20:17:45.429Z,31.00
2023-10-03T20:20:13.939Z,23.70
2023-10-03T20:22:45.386Z,22.20
2023-10-03T20:25:14.646Z,24.00
2023-10-03T20:27:43.747Z,25.40
2023-10-03T20:30:12.824Z,19.10
2023-10-03T20:32:42.755Z,22.20
2023-10-03T20:35:14.949Z,24.50
2023-10-03T20:37:43.361Z,21.80
2023-10-03T20:40:11.894Z,22.20
2023-10-03T20:42:40.459Z,25.30
2023-10-03T20:45:10.715Z,19.10
2023-10-03T20:47:40.435Z,20.60
2023-10-03T20:50:09.640Z,18.50
2023-10-03T20:52:38.459Z,24.20
2023-10-03T20:55:08.530Z,24.70
2023-10-03T20:57:38.204Z,20.10
2023-10-03T21:00:08.247Z,20.10
2023-10-03T21:02:37.675Z,21.90
2023-10-03T21:05:06.300Z,25.20
2023-10-03T21:07:34.639Z,20.60
2023-10-03T21:10:02.963Z,25.20
2023-10-03T21:12:31.096Z,26.40
2023-10-03T21:14:59.736Z,18.40
2023-10-03T21:17:28.837Z,27.00
2023-10-03T21:19:59.887Z,20.80
2023-10-03T21:22:28.052Z,20.40
2023-10-03T21:24:56.254Z,18.50
2023-10-03T21:27:25.568Z,24.70
2023-10-03T21:29:53.769Z,25.60
2023-10-03T21:32:21.972Z,23.90
2023-10-03T21:34:50.084Z,23.00
2023-10-03T21:37:18.311Z,17.50
2023-10-03T21:39:46.509Z,18.10
2023-10-03T21:42:14.835Z,18.90
2023-10-03T21:44:43.435Z,16.50
2023-10-03T21:47:12.244Z,17.20
2023-10-03T21:49:40.674Z,22.90
2023-10-03T21:52:08.868Z,21.00
2023-10-03T21:54:36.815Z,18.30
2023-10-03T21:57:04.965Z,25.00
2023-10-03T21:59:33.028Z,17.70
2023-10-03T22:02:01.273Z,19.30
2023-10-03T22:04:29.480Z,20.90
2023-10-03T22:06:57.987Z,22.30
2023-10-03T22:09:26.311Z,17.80
2023-10-03T22:11:54.541Z,19.00
2023-10-03T22:14:22.841Z,14.10
2023-10-03T22:16:50.896Z,19.00
2023-10-03T22:19:21.494Z,22.10
2023-10-03T22:21:53.259Z,22.70
2023-10-03T22:24:25.731Z,24.30
2023-10-03T22:26:53.978Z,24.60
2023-10-03T22:29:22.000Z,23.40
2023-10-03T22:31:50.588Z,21.70
2023-10-03T22:34:18.821Z,23.20
2023-10-03T22:36:46.852Z,19.00
2023-10-03T22:39:17.621Z,20.10
2023-10-03T22:41:45.913Z,17.40
2023-10-03T22:44:14.539Z,21.70
2023-10-03T22:46:43.456Z,18.70
2023-10-03T22:49:11.922Z,19.20
2023-10-03T22:51:40.495Z,19.50
2023-10-03T22:54:08.715Z,19.00
2023-10-03T22:56:37.124Z,23.60
2023-10-03T22:59:07.959Z,17.80
2023-10-03T23:01:38.100Z,18.50
2023-10-03T23:04:06.424Z,19.80
2023-10-03T23:06:34.665Z,16.00
2023-10-03T23:09:03.363Z,18.50
2023-10-03T23:11:32.430Z,18.40
2023-10-03T23:14:01.358Z,21.40
2023-10-03T23:16:29.973Z,15.60
2023-10-03T23:18:58.207Z,17.70
2023-10-03T23:21:26.305Z,17.40
2023-10-03T23:23:54.453Z,18.40
2023-10-03T23:26:22.853Z,15.80
2023-10-03T23:28:51.003Z,14.90
2023-10-03T23:31:19.175Z,13.80
2023-10-03T23:33:47.390Z,18.10
2023-10-03T23:36:15.884Z,18.80
2023-10-03T23:38:44.469Z,16.50
2023-10-03T23:41:13.297Z,19.30
2023-10-03T23:43:41.899Z,19.70
2023-10-03T23:46:10.958Z,21.10
2023-10-03T23:48:40.862Z,17.30
2023-10-03T23:51:12.861Z,18.30
2023-10-03T23:53:41.331Z,13.70
2023-10-03T23:56:13.896Z,19.10
2023-10-03T23:58:41.960Z,20.40
